Time;durP1;ratioP1;P1;durP2;ratioP2;P2;SDS_P1;SDS_P2;PMS_P1;PMS_P2;Temp;Humidity;BMP_temperature;BMP_pressure;BME280_temperature;BME280_humidity;BME280_pressure;Samples;Min_cycle;Max_cycle;Signal;HPM_P1;HPM_P2
2023/11/07 00:00:52;;;;;;;6.30;2.90;;;;;;;3.23;83.68;95746.44;106891;1273;22598;-77
2023/11/07 00:03:40;;;;;;;7.70;2.20;;;;;;;3.16;83.73;95742.34;106856;1273;25439;-77
2023/11/07 00:06:08;;;;;;;6.60;2.20;;;;;;;3.15;84.19;95746.16;106666;1273;24410;-77
2023/11/07 00:08:37;;;;;;;7.90;3.40;;;;;;;3.16;84.51;95749.11;106859;1260;24277;-77
2023/11/07 00:11:05;;;;;;;7.20;2.30;;;;;;;3.18;83.98;95755.23;106978;1273;24238;-77
2023/11/07 00:13:33;;;;;;;4.10;1.00;;;;;;;3.18;83.89;95756.45;106786;1262;24325;-77
2023/11/07 00:16:01;;;;;;;8.30;3.30;;;;;;;3.26;84.52;95755.84;106895;1273;25471;-77
2023/11/07 00:18:29;;;;;;;12.30;6.40;;;;;;;3.25;84.53;95759.31;106859;1273;24405;-77
2023/11/07 00:20:58;;;;;;;10.20;3.40;;;;;;;3.24;83.97;95757.90;106858;1273;25249;-77
2023/11/07 00:23:26;;;;;;;4.10;2.20;;;;;;;3.30;84.51;95758.52;106817;1273;25694;-77
2023/11/07 00:25:54;;;;;;;5.70;2.60;;;;;;;3.34;84.49;95757.86;106894;1273;25355;-77
2023/11/07 00:28:25;;;;;;;7.30;2.80;;;;;;;3.42;84.58;95766.98;106904;1273;24205;-77
2023/11/07 00:30:53;;;;;;;6.70;2.70;;;;;;;3.49;84.53;95762.20;106894;1273;22575;-77
2023/11/07 00:33:21;;;;;;;6.20;1.80;;;;;;;3.50;84.39;95760.14;106891;1273;25114;-77
2023/11/07 00:35:49;;;;;;;3.00;1.20;;;;;;;3.55;84.13;95758.79;106795;1273;25495;-77
2023/11/07 00:38:18;;;;;;;3.30;1.10;;;;;;;3.58;84.32;95753.45;106890;1273;22656;-77
2023/11/07 00:40:47;;;;;;;2.50;1.50;;;;;;;3.61;84.28;95755.21;106841;1273;22775;-77
2023/11/07 00:43:15;;;;;;;3.80;1.50;;;;;;;3.72;84.54;95751.50;106882;1273;22518;-77
2023/11/07 00:45:45;;;;;;;3.00;1.10;;;;;;;3.74;83.88;95760.73;106701;1273;22528;-77
2023/11/07 00:48:13;;;;;;;4.30;1.70;;;;;;;3.75;84.32;95759.52;106723;1273;22759;-77
2023/11/07 00:50:42;;;;;;;4.10;2.20;;;;;;;3.75;84.31;95763.54;106905;1273;24285;-77
2023/11/07 00:53:10;;;;;;;9.70;4.00;;;;;;;3.65;84.54;95758.04;106744;1273;22526;-77
2023/11/07 00:55:38;;;;;;;3.40;1.80;;;;;;;3.72;84.62;95762.63;106736;1273;22518;-77
2023/11/07 00:58:06;;;;;;;2.30;0.80;;;;;;;3.80;84.61;95771.95;106754;1273;23941;-77
2023/11/07 01:00:35;;;;;;;3.70;1.00;;;;;;;3.87;84.36;95770.62;106833;1273;22513;-77
2023/11/07 01:03:04;;;;;;;3.60;1.30;;;;;;;3.97;84.63;95781.33;106726;1273;25380;-77
2023/11/07 01:05:32;;;;;;;4.40;1.70;;;;;;;4.02;84.83;95793.92;106919;1273;24041;-77
2023/11/07 01:08:01;;;;;;;11.50;5.40;;;;;;;4.13;84.68;95807.42;106887;1273;25328;-77
2023/11/07 01:10:30;;;;;;;9.00;3.50;;;;;;;4.22;84.31;95822.83;106743;1273;22521;-78
2023/11/07 01:12:59;;;;;;;5.90;4.10;;;;;;;4.29;84.27;95818.20;106879;1273;22643;-77
2023/11/07 01:15:27;;;;;;;8.60;4.80;;;;;;;4.27;83.83;95814.52;106970;1273;25948;-78
2023/11/07 01:17:55;;;;;;;9.20;5.40;;;;;;;4.12;83.67;95807.59;106873;1273;23889;-77
2023/11/07 01:20:24;;;;;;;9.80;4.90;;;;;;;4.06;84.08;95805.79;106708;1273;25309;-78
2023/11/07 01:22:52;;;;;;;8.10;4.60;;;;;;;4.06;84.40;95803.70;106923;1273;22576;-78
2023/11/07 01:25:20;;;;;;;7.40;3.70;;;;;;;4.10;84.09;95800.27;106878;1250;24389;-78
2023/11/07 01:27:49;;;;;;;5.50;3.20;;;;;;;4.11;83.78;95795.57;106689;1260;24484;-77
2023/11/07 01:30:17;;;;;;;6.70;3.60;;;;;;;4.07;83.65;95788.57;106796;1273;24279;-78
2023/11/07 01:32:46;;;;;;;6.30;2.90;;;;;;;4.04;83.86;95790.98;106850;1273;24503;-77
2023/11/07 01:35:16;;;;;;;8.40;3.00;;;;;;;4.06;84.15;95796.92;106818;1266;24409;-77
2023/11/07 01:37:44;;;;;;;9.00;3.90;;;;;;;4.08;84.38;95791.55;107022;1273;25396;-78
2023/11/07 01:40:12;;;;;;;6.70;2.90;;;;;;;4.08;84.53;95798.48;106708;1273;22528;-78
2023/11/07 01:42:48;;;;;;;6.50;3.90;;;;;;;4.09;85.29;95800.77;107120;1273;24204;-77
2023/11/07 01:45:17;;;;;;;6.80;3.10;;;;;;;4.11;84.79;95792.77;107191;1273;22645;-77
2023/11/07 01:47:46;;;;;;;7.00;2.40;;;;;;;4.09;84.70;95786.50;107068;1273;22514;-77
2023/11/07 01:50:15;;;;;;;7.90;3.40;;;;;;;4.14;85.33;95792.11;107210;1260;22635;-77
2023/11/07 01:52:43;;;;;;;5.40;2.60;;;;;;;4.20;85.41;95795.99;107093;1273;22520;-77
2023/11/07 01:55:16;;;;;;;10.40;5.50;;;;;;;4.26;85.30;95803.36;106774;1273;25242;-77
2023/11/07 01:57:46;;;;;;;9.10;3.30;;;;;;;4.36;85.15;95793.01;106722;1273;22637;-78
2023/11/07 02:00:16;;;;;;;5.50;2.90;;;;;;;4.48;85.58;95781.98;106944;1250;24479;-77
2023/11/07 02:02:44;;;;;;;9.90;4.10;;;;;;;4.57;85.49;95767.73;106819;1273;23880;-77
2023/11/07 02:05:13;;;;;;;8.50;3.90;;;;;;;4.57;84.77;95763.05;106919;1273;25875;-77
2023/11/07 02:07:43;;;;;;;6.20;3.40;;;;;;;4.56;84.96;95760.42;106941;1273;25347;-77
2023/11/07 02:10:11;;;;;;;5.40;2.90;;;;;;;4.59;84.64;95756.61;106681;1273;22528;-77
2023/11/07 02:12:39;;;;;;;13.70;5.20;;;;;;;4.62;84.72;95754.36;107043;1273;25422;-77
2023/11/07 02:15:31;;;;;;;18.40;7.90;;;;;;;4.60;84.67;95748.26;106998;1273;25583;-78
2023/11/07 02:18:00;;;;;;;15.40;6.60;;;;;;;4.56;84.70;95755.19;106755;1273;25236;-77
2023/11/07 02:20:30;;;;;;;11.10;4.60;;;;;;;4.50;85.11;95760.55;107051;1273;22522;-77
2023/11/07 02:23:06;;;;;;;12.30;4.30;;;;;;;4.45;84.99;95764.88;106961;1273;25432;-77
2023/11/07 02:25:35;;;;;;;7.20;2.90;;;;;;;4.44;84.80;95759.45;106843;1273;24337;-77
2023/11/07 02:28:04;;;;;;;8.70;3.10;;;;;;;4.44;84.69;95754.76;106947;1273;25614;-77
2023/11/07 02:30:32;;;;;;;11.20;3.60;;;;;;;4.42;84.68;95751.61;106947;1273;25338;-77
2023/11/07 02:33:04;;;;;;;6.60;2.90;;;;;;;4.32;85.15;95754.83;106965;1273;24362;-77
2023/11/07 02:35:33;;;;;;;4.80;1.90;;;;;;;4.21;84.74;95757.69;106885;1273;22723;-77
2023/11/07 02:38:02;;;;;;;6.60;2.40;;;;;;;4.13;85.14;95743.36;106973;1273;22527;-77
2023/11/07 02:40:31;;;;;;;5.00;1.60;;;;;;;4.08;85.01;95746.10;106893;1273;25297;-77
2023/11/07 02:43:04;;;;;;;3.90;1.30;;;;;;;4.01;85.86;95736.47;106894;1273;22550;-77
2023/11/07 02:45:35;;;;;;;3.90;1.10;;;;;;;3.90;85.38;95747.33;107052;1273;22536;-77
2023/11/07 02:48:04;;;;;;;2.40;1.00;;;;;;;3.83;85.32;95746.91;106975;1266;24225;-77
2023/11/07 02:50:33;;;;;;;3.20;0.70;;;;;;;3.78;85.71;95740.95;107006;1273;22530;-77
2023/11/07 02:53:01;;;;;;;2.80;1.00;;;;;;;3.72;85.71;95747.14;106789;1273;25429;-77
2023/11/07 02:55:29;;;;;;;3.50;0.90;;;;;;;3.75;85.95;95741.95;106950;1273;22657;-77
2023/11/07 02:57:57;;;;;;;6.40;3.40;;;;;;;3.72;86.04;95743.83;106897;1273;22973;-77
2023/11/07 03:00:26;;;;;;;2.20;1.40;;;;;;;3.68;86.25;95744.86;106772;1273;22562;-77
2023/11/07 03:02:55;;;;;;;0.90;0.60;;;;;;;3.68;86.64;95744.14;106907;1273;22527;-77
2023/11/07 03:05:23;;;;;;;3.00;0.80;;;;;;;3.66;87.05;95751.44;106700;1273;22847;-77
2023/11/07 03:07:51;;;;;;;1.40;0.50;;;;;;;3.66;86.95;95741.52;106745;1250;23292;-77
2023/11/07 03:10:20;;;;;;;1.90;0.30;;;;;;;3.69;87.29;95743.81;106867;1273;25357;-77
2023/11/07 03:12:48;;;;;;;2.60;0.50;;;;;;;3.73;87.12;95748.90;107000;1273;25296;-77
2023/11/07 03:15:16;;;;;;;1.50;0.50;;;;;;;3.73;86.81;95748.90;106913;1273;25101;-77
2023/11/07 03:17:44;;;;;;;2.90;0.70;;;;;;;3.78;87.18;95756.59;106852;1273;25348;-77
2023/11/07 03:20:13;;;;;;;1.30;0.40;;;;;;;3.79;87.53;95755.91;106859;1273;22520;-77
2023/11/07 03:22:41;;;;;;;6.60;1.90;;;;;;;3.78;87.33;95757.13;106892;1273;24373;-77
2023/11/07 03:25:09;;;;;;;2.70;0.90;;;;;;;3.77;87.85;95756.95;106686;1273;22789;-77
2023/11/07 03:27:38;;;;;;;0.80;0.30;;;;;;;3.81;87.50;95755.93;106798;1273;24369;-77
2023/11/07 03:30:08;;;;;;;2.80;0.30;;;;;;;3.83;87.53;95753.33;106928;1273;25375;-77
2023/11/07 03:32:37;;;;;;;0.50;0.20;;;;;;;3.84;87.72;95755.09;106663;1273;22517;-77
2023/11/07 03:35:05;;;;;;;4.60;0.40;;;;;;;3.85;87.77;95753.02;106912;1273;22786;-77
2023/11/07 03:37:33;;;;;;;3.50;0.30;;;;;;;3.85;87.16;95757.37;107004;1273;22523;-77
2023/11/07 03:40:03;;;;;;;0.50;0.30;;;;;;;3.86;87.49;95754.59;106959;1273;25313;-77
2023/11/07 03:42:32;;;;;;;1.70;0.50;;;;;;;3.88;87.33;95756.00;106778;1251;24272;-77
2023/11/07 03:45:00;;;;;;;2.70;1.10;;;;;;;3.87;87.41;95757.39;106748;1256;24060;-77
2023/11/07 03:47:29;;;;;;;1.40;0.60;;;;;;;3.90;87.44;95754.98;106824;1273;25379;-77
2023/11/07 03:49:57;;;;;;;1.90;0.60;;;;;;;3.87;86.76;95757.91;106977;1273;22524;-77
2023/11/07 03:52:26;;;;;;;4.70;0.60;;;;;;;3.77;86.38;95763.04;106674;1273;25367;-77
2023/11/07 03:54:54;;;;;;;2.50;0.90;;;;;;;3.71;86.65;95759.15;106895;1273;25313;-77
2023/11/07 03:57:23;;;;;;;1.80;0.80;;;;;;;3.65;86.95;95761.52;106707;1273;24222;-77
2023/11/07 03:59:51;;;;;;;2.40;1.00;;;;;;;3.69;87.33;95760.50;106967;1273;22524;-77
2023/11/07 04:02:21;;;;;;;3.20;0.60;;;;;;;3.70;87.22;95756.34;107002;1273;25424;-77
2023/11/07 04:04:49;;;;;;;2.30;0.60;;;;;;;3.63;86.61;95754.54;106957;1273;25294;-77
2023/11/07 04:07:17;;;;;;;1.10;0.40;;;;;;;3.64;86.99;95760.46;106642;1273;24369;-77
2023/11/07 04:09:45;;;;;;;1.60;0.80;;;;;;;3.68;87.24;95762.59;106914;1273;22531;-77
2023/11/07 04:12:14;;;;;;;1.30;0.60;;;;;;;3.63;87.29;95763.77;106982;1273;22572;-77
2023/11/07 04:14:45;;;;;;;5.10;1.30;;;;;;;3.61;87.34;95758.35;106843;1273;22538;-77
2023/11/07 04:17:15;;;;;;;1.90;0.50;;;;;;;3.57;87.28;95763.86;106749;1273;24199;-77
2023/11/07 04:19:43;;;;;;;0.70;0.60;;;;;;;3.53;87.36;95762.60;106986;1273;22529;-78
2023/11/07 04:22:12;;;;;;;10.80;6.40;;;;;;;3.46;87.36;95761.83;106972;1273;22593;-78
2023/11/07 04:24:42;;;;;;;3.80;0.90;;;;;;;3.41;87.57;95766.29;106888;1273;24469;-78
2023/11/07 04:27:10;;;;;;;25.10;15.10;;;;;;;3.38;88.57;95765.03;106913;1273;25362;-76
2023/11/07 04:29:39;;;;;;;17.20;12.30;;;;;;;3.32;87.78;95777.84;106897;1273;22527;-77
2023/11/07 04:32:07;;;;;;;5.00;2.70;;;;;;;3.27;87.76;95776.55;106798;1273;24238;-77
2023/11/07 04:34:35;;;;;;;2.10;1.10;;;;;;;3.20;88.06;95773.86;106933;1273;22626;-77
2023/11/07 04:37:03;;;;;;;2.20;1.00;;;;;;;3.16;88.16;95776.41;106896;1273;26605;-77
2023/11/07 04:39:32;;;;;;;4.20;1.90;;;;;;;3.11;87.92;95766.09;106937;1273;25431;-77
2023/11/07 04:42:01;;;;;;;4.30;1.00;;;;;;;3.06;87.79;95770.55;106882;1273;22520;-77
2023/11/07 04:44:31;;;;;;;2.60;1.20;;;;;;;3.06;88.21;95769.85;106890;1273;24211;-77
2023/11/07 04:47:02;;;;;;;1.30;0.70;;;;;;;3.06;88.66;95772.64;106939;1262;24461;-77
2023/11/07 04:49:31;;;;;;;4.20;0.90;;;;;;;3.05;88.20;95775.06;106910;1273;24215;-77
2023/11/07 04:52:00;;;;;;;1.60;1.00;;;;;;;3.08;88.49;95776.13;106819;1273;24259;-77
2023/11/07 04:54:30;;;;;;;5.10;3.20;;;;;;;3.07;88.36;95778.02;106750;1273;22513;-77
2023/11/07 04:56:58;;;;;;;2.20;1.10;;;;;;;3.07;88.44;95780.98;106872;1273;22521;-77
2023/11/07 04:59:26;;;;;;;4.20;1.30;;;;;;;3.05;88.19;95782.53;106907;1273;24364;-77
2023/11/07 05:01:55;;;;;;;2.10;1.20;;;;;;;3.12;88.57;95783.65;106922;1273;23508;-77
2023/11/07 05:04:23;;;;;;;3.20;1.50;;;;;;;3.15;88.43;95781.42;106897;1273;23870;-77
2023/11/07 05:06:51;;;;;;;1.90;0.60;;;;;;;3.18;88.54;95791.03;106935;1273;24191;-77
2023/11/07 05:09:20;;;;;;;2.30;1.00;;;;;;;3.22;88.56;95794.91;106728;1267;247416;-77
2023/11/07 05:11:48;;;;;;;9.00;5.40;;;;;;;3.26;88.71;95790.79;106934;1273;22520;-77
2023/11/07 05:14:16;;;;;;;11.10;5.80;;;;;;;3.21;88.01;95788.65;107010;1273;22527;-76
2023/11/07 05:16:44;;;;;;;11.90;7.90;;;;;;;3.19;88.23;95790.35;106751;1273;25332;-77
2023/11/07 05:19:14;;;;;;;14.30;9.90;;;;;;;3.20;88.12;95799.41;106883;1273;25441;-77
2023/11/07 05:21:43;;;;;;;13.10;8.90;;;;;;;3.15;87.34;95801.26;106951;1269;22538;-77
2023/11/07 05:24:11;;;;;;;22.20;15.30;;;;;;;3.13;87.57;95799.32;106704;1273;24232;-77
2023/11/07 05:26:39;;;;;;;10.00;4.70;;;;;;;3.16;87.64;95801.96;106883;1263;24228;-77
2023/11/07 05:29:07;;;;;;;3.10;1.00;;;;;;;3.21;88.03;95802.02;107038;1273;25243;-77
2023/11/07 05:31:36;;;;;;;4.30;2.50;;;;;;;3.23;87.70;95801.20;106741;1273;25421;-77
2023/11/07 05:34:06;;;;;;;22.40;12.60;;;;;;;3.28;88.05;95801.08;106868;1273;25354;-77
2023/11/07 05:36:34;;;;;;;16.70;13.20;;;;;;;3.31;88.02;95803.03;106969;1273;22517;-77
2023/11/07 05:39:03;;;;;;;20.80;15.40;;;;;;;3.37;87.78;95805.70;106917;1273;25639;-77
2023/11/07 05:41:32;;;;;;;20.80;14.70;;;;;;;3.39;87.90;95804.02;106918;1273;24250;-77
2023/11/07 05:44:00;;;;;;;11.10;6.40;;;;;;;3.41;87.53;95806.63;106901;1273;24268;-77
2023/11/07 05:46:28;;;;;;;3.20;1.00;;;;;;;3.36;87.24;95819.27;106847;1273;22635;-77
2023/11/07 05:48:57;;;;;;;3.50;1.20;;;;;;;3.39;87.64;95817.73;106651;1273;22534;-77
2023/11/07 05:51:25;;;;;;;1.60;0.80;;;;;;;3.39;87.55;95823.65;106904;1273;24185;-77
2023/11/07 05:53:53;;;;;;;2.60;1.20;;;;;;;3.44;87.94;95823.55;106865;1273;22518;-77
2023/11/07 05:56:22;;;;;;;1.40;0.60;;;;;;;3.47;87.62;95829.14;106959;1273;23026;-77
2023/11/07 05:58:50;;;;;;;1.10;0.90;;;;;;;3.42;87.49;95835.86;107031;1273;24246;-76
2023/11/07 06:01:18;;;;;;;1.40;0.50;;;;;;;3.40;87.73;95837.75;107119;1273;23106;-76
2023/11/07 06:03:50;;;;;;;1.10;0.50;;;;;;;3.40;87.76;95842.63;106968;1273;24205;-77
2023/11/07 06:06:18;;;;;;;1.30;0.50;;;;;;;3.40;87.90;95838.62;106898;1269;24465;-77
2023/11/07 06:08:47;;;;;;;2.10;0.80;;;;;;;3.39;87.86;95845.55;106904;1273;22820;-77
2023/11/07 06:11:15;;;;;;;6.00;2.50;;;;;;;3.40;88.31;95847.13;107039;1273;22543;-78
2023/11/07 06:13:44;;;;;;;5.80;3.80;;;;;;;3.41;88.39;95848.89;107007;1273;22527;-78
2023/11/07 06:16:12;;;;;;;8.80;5.40;;;;;;;3.38;88.23;95850.06;106785;1273;22541;-76
2023/11/07 06:18:40;;;;;;;8.00;4.00;;;;;;;3.37;88.10;95856.66;107126;1273;22521;-76
2023/11/07 06:21:11;;;;;;;5.80;1.60;;;;;;;3.40;88.24;95858.10;106955;1273;22511;-77
2023/11/07 06:23:39;;;;;;;1.50;0.90;;;;;;;3.47;88.39;95858.53;106933;1273;24053;-77
2023/11/07 06:26:08;;;;;;;10.20;5.10;;;;;;;3.51;88.83;95866.06;106911;1273;24232;-75
2023/11/07 06:28:36;;;;;;;6.40;4.30;;;;;;;3.52;88.07;95862.59;106875;1273;22525;-77
2023/11/07 06:31:04;;;;;;;13.20;7.00;;;;;;;3.59;88.72;95866.16;106933;1273;24214;-77
2023/11/07 06:33:33;;;;;;;37.80;20.70;;;;;;;3.65;88.69;95867.63;107036;1273;22517;-78
2023/11/07 06:36:01;;;;;;;74.10;43.80;;;;;;;3.71;88.57;95869.98;107086;1273;22654;-76
2023/11/07 06:38:29;;;;;;;51.60;32.30;;;;;;;3.76;88.59;95869.50;106955;1273;23134;-78
2023/11/07 06:40:57;;;;;;;62.40;37.70;;;;;;;3.79;89.17;95868.32;106901;1273;25421;-78
2023/11/07 06:43:25;;;;;;;45.90;28.80;;;;;;;3.91;88.84;95867.95;106709;1273;22527;-78
2023/11/07 06:45:54;;;;;;;43.30;28.90;;;;;;;4.07;89.51;95873.34;106938;1273;22523;-79
2023/11/07 06:48:22;;;;;;;10.30;6.20;;;;;;;4.22;89.54;95878.89;106934;1273;25350;-80
2023/11/07 06:50:51;;;;;;;26.00;16.40;;;;;;;4.42;90.83;95873.88;106859;1273;25326;-77
2023/11/07 06:53:19;;;;;;;13.70;11.40;;;;;;;4.57;90.44;95883.43;106949;1273;22520;-78
2023/11/07 06:55:47;;;;;;;18.30;14.10;;;;;;;4.78;90.40;95881.70;107075;1273;24259;-78
2023/11/07 06:58:15;;;;;;;33.90;22.20;;;;;;;5.02;90.69;95880.30;106972;1273;22662;-77
2023/11/07 07:00:44;;;;;;;38.60;22.90;;;;;;;5.23;90.29;95880.30;107016;1273;23913;-77
2023/11/07 07:03:13;;;;;;;24.30;14.30;;;;;;;5.47;90.41;95869.61;106717;1273;22675;-79
2023/11/07 07:05:41;;;;;;;27.50;18.40;;;;;;;5.67;90.18;95880.02;106955;1261;24504;-78
2023/11/07 07:08:10;;;;;;;17.90;11.60;;;;;;;5.87;89.69;95875.92;106986;1273;22527;-77
2023/11/07 07:10:40;;;;;;;11.80;8.60;;;;;;;5.99;89.39;95868.13;106827;1273;24341;-78
2023/11/07 07:13:08;;;;;;;13.40;8.80;;;;;;;6.12;88.99;95865.55;107049;1273;22536;-78
2023/11/07 07:15:37;;;;;;;14.40;9.90;;;;;;;6.26;89.14;95870.32;107000;1273;25297;-78
2023/11/07 07:18:06;;;;;;;13.50;9.60;;;;;;;6.41;88.68;95868.42;107060;1273;25556;-77
2023/11/07 07:20:37;;;;;;;14.00;8.30;;;;;;;6.56;88.64;95870.90;107134;1273;22537;-78
2023/11/07 07:23:05;;;;;;;11.60;8.60;;;;;;;6.73;88.71;95867.42;107135;1273;22637;-77
2023/11/07 07:25:36;;;;;;;14.60;8.10;;;;;;;6.95;88.89;95869.35;106915;1273;23883;-77
2023/11/07 07:28:06;;;;;;;13.00;9.00;;;;;;;7.13;88.17;95876.68;106777;1273;22528;-78
2023/11/07 07:30:37;;;;;;;11.90;7.10;;;;;;;7.29;88.26;95877.37;106831;1273;22517;-79
2023/11/07 07:33:08;;;;;;;11.30;6.00;;;;;;;7.51;88.51;95881.19;106919;1273;24266;-79
2023/11/07 07:35:37;;;;;;;12.70;6.60;;;;;;;7.67;87.47;95887.80;107036;1273;25425;-79
2023/11/07 07:38:09;;;;;;;20.30;11.10;;;;;;;7.80;87.09;95886.36;107107;1273;25238;-79
2023/11/07 07:40:38;;;;;;;24.10;16.10;;;;;;;7.84;86.40;95887.75;106911;1273;25430;-78
2023/11/07 07:43:10;;;;;;;23.80;16.60;;;;;;;7.83;85.76;95893.17;107153;1273;24370;-81
2023/11/07 07:45:42;;;;;;;27.60;15.90;;;;;;;7.83;85.42;95897.73;106769;1273;25341;-80
2023/11/07 07:48:11;;;;;;;21.10;13.80;;;;;;;7.91;85.95;95896.66;107108;1273;22989;-78
2023/11/07 07:50:46;;;;;;;27.80;16.30;;;;;;;7.99;85.77;95900.84;107073;1273;22540;-77
2023/11/07 07:53:15;;;;;;;22.10;14.80;;;;;;;8.08;85.75;95895.90;107014;1273;25342;-78
2023/11/07 07:55:44;;;;;;;20.70;12.10;;;;;;;8.12;85.45;95893.77;106929;1273;22566;-78
2023/11/07 07:58:18;;;;;;;20.00;10.30;;;;;;;8.17;85.28;95892.00;106859;1273;22662;-79
2023/11/07 08:00:52;;;;;;;19.60;12.80;;;;;;;8.21;85.00;95891.46;107129;1273;22543;-80
2023/11/07 08:03:21;;;;;;;20.90;13.00;;;;;;;8.23;84.91;95894.60;106938;1274;25463;-79
2023/11/07 08:05:52;;;;;;;22.70;12.70;;;;;;;8.25;84.67;95898.09;107169;1275;22655;-79
2023/11/07 08:08:20;;;;;;;26.10;13.10;;;;;;;8.25;84.75;95903.89;106899;1274;23847;-79
2023/11/07 08:10:49;;;;;;;34.90;14.60;;;;;;;8.22;85.00;95895.48;106913;1274;24569;-77
2023/11/07 08:13:19;;;;;;;35.80;15.40;;;;;;;8.18;84.69;95893.05;107252;1273;22944;-78
2023/11/07 08:15:49;;;;;;;34.00;15.30;;;;;;;8.14;84.63;95888.33;107474;1273;22527;-78
2023/11/07 08:18:18;;;;;;;28.60;13.10;;;;;;;8.13;84.66;95888.85;107640;1273;25245;-80
2023/11/07 08:20:50;;;;;;;137.70;56.90;;;;;;;8.16;84.83;95891.83;107242;1273;22621;-79
2023/11/07 08:23:18;;;;;;;131.00;80.20;;;;;;;8.21;84.89;95892.16;107003;1273;22581;-80
2023/11/07 08:25:47;;;;;;;45.80;24.70;;;;;;;8.28;85.32;95892.13;107174;1273;22527;-78
2023/11/07 08:28:17;;;;;;;42.30;19.40;;;;;;;8.38;85.95;95887.52;107140;1273;22534;-78
2023/11/07 08:30:46;;;;;;;31.20;18.20;;;;;;;8.49;85.71;95890.30;107209;1263;22578;-80
2023/11/07 08:33:14;;;;;;;30.40;14.60;;;;;;;8.61;85.66;95887.06;107206;1273;25520;-79
2023/11/07 08:35:43;;;;;;;25.60;12.30;;;;;;;8.76;85.57;95884.50;106708;1273;24278;-79
2023/11/07 08:38:12;;;;;;;16.80;9.80;;;;;;;8.92;85.53;95886.67;107000;1273;22636;-78
2023/11/07 08:40:40;;;;;;;16.60;10.80;;;;;;;9.04;85.04;95886.60;106965;1273;25342;-78
2023/11/07 08:43:09;;;;;;;20.40;9.90;;;;;;;9.10;84.44;95886.70;106974;1273;22532;-79
2023/11/07 08:45:37;;;;;;;18.50;10.10;;;;;;;9.21;84.62;95883.64;107010;1267;22520;-80
2023/11/07 08:48:06;;;;;;;18.90;8.70;;;;;;;9.35;84.76;95884.20;107078;1273;22527;-81
2023/11/07 08:50:37;;;;;;;16.30;8.70;;;;;;;9.49;84.77;95891.81;107289;1273;25514;-80
2023/11/07 08:53:05;;;;;;;13.50;7.10;;;;;;;9.65;83.97;95884.62;106976;1273;22542;-79
2023/11/07 08:55:34;;;;;;;16.10;7.80;;;;;;;9.80;84.19;95883.75;106787;1254;24231;-79
2023/11/07 08:58:03;;;;;;;12.90;7.10;;;;;;;10.02;83.98;95883.52;106880;1275;24269;-80
2023/11/07 09:00:33;;;;;;;11.20;6.20;;;;;;;10.22;83.42;95882.05;106943;1274;25258;-79
2023/11/07 09:03:03;;;;;;;15.60;7.70;;;;;;;10.39;81.97;95878.69;106872;1274;22660;-80
2023/11/07 09:05:32;;;;;;;17.70;9.70;;;;;;;10.49;81.37;95875.40;106869;1274;25287;-79
2023/11/07 09:08:04;;;;;;;8.60;3.30;;;;;;;10.65;81.67;95873.59;106869;1274;22524;-79
2023/11/07 09:10:33;;;;;;;26.50;20.80;;;;;;;10.84;81.69;95871.20;106839;1274;25246;-79
2023/11/07 09:13:03;;;;;;;12.30;7.70;;;;;;;11.04;80.95;95864.36;106896;1274;23109;-79
2023/11/07 09:15:32;;;;;;;11.20;5.70;;;;;;;11.24;80.06;95862.98;106816;1270;22531;-79
2023/11/07 09:18:00;;;;;;;11.80;9.50;;;;;;;11.42;79.34;95856.69;107020;1274;22645;-81
2023/11/07 09:20:29;;;;;;;13.90;10.30;;;;;;;11.54;79.39;95847.66;106777;1274;25468;-79
2023/11/07 09:22:57;;;;;;;12.20;8.90;;;;;;;11.61;77.49;95846.48;107046;1274;25501;-81
2023/11/07 09:25:25;;;;;;;9.60;6.40;;;;;;;11.66;76.75;95849.91;106931;1274;22580;-80
2023/11/07 09:27:54;;;;;;;8.10;6.10;;;;;;;11.73;77.16;95845.55;106890;1274;22543;-80
2023/11/07 09:30:22;;;;;;;9.40;6.90;;;;;;;11.81;77.63;95845.39;106947;1274;24370;-78
2023/11/07 09:32:50;;;;;;;5.80;3.50;;;;;;;11.93;77.49;95853.84;107050;1270;22512;-79
2023/11/07 09:35:19;;;;;;;8.70;4.20;;;;;;;12.01;77.39;95857.89;106936;1274;22533;-80
2023/11/07 09:37:49;;;;;;;5.90;3.40;;;;;;;12.08;77.36;95849.80;106866;1274;22641;-80
2023/11/07 09:40:19;;;;;;;6.80;3.40;;;;;;;12.17;77.30;95846.98;106935;1274;25249;-79
2023/11/07 09:42:53;;;;;;;7.20;4.20;;;;;;;12.26;75.90;95849.63;106749;1274;25492;-81
2023/11/07 09:45:23;;;;;;;13.00;7.00;;;;;;;12.34;75.87;95844.34;106941;1273;25236;-81
2023/11/07 09:47:54;;;;;;;6.90;4.70;;;;;;;12.47;75.76;95842.81;107163;1273;22519;-82
2023/11/07 09:50:24;;;;;;;10.50;2.50;;;;;;;12.56;74.32;95840.31;107066;1273;25411;-79
2023/11/07 09:52:54;;;;;;;2.50;1.30;;;;;;;12.62;74.10;95837.90;107076;1273;24376;-78
2023/11/07 09:55:28;;;;;;;2.60;1.10;;;;;;;12.67;73.44;95837.26;107141;1273;24203;-79
2023/11/07 09:58:17;;;;;;;3.00;0.80;;;;;;;12.61;72.04;95835.29;107030;1273;22481;-79
2023/11/07 10:00:45;;;;;;;1.70;0.90;;;;;;;12.52;72.24;95836.20;107100;1273;25496;-80
2023/11/07 10:03:15;;;;;;;4.10;1.20;;;;;;;12.51;72.67;95839.92;106918;1273;22520;-80
2023/11/07 10:05:47;;;;;;;2.70;1.00;;;;;;;12.52;73.48;95836.73;106959;1273;25405;-79
2023/11/07 10:08:18;;;;;;;2.90;1.20;;;;;;;12.48;73.21;95832.58;106988;1273;24359;-80
2023/11/07 10:11:10;;;;;;;7.60;1.80;;;;;;;12.35;71.53;95837.61;106825;1273;25300;-81
2023/11/07 10:13:39;;;;;;;1.90;1.00;;;;;;;12.17;70.85;95833.42;106912;1273;25258;-79
2023/11/07 10:16:08;;;;;;;2.20;1.00;;;;;;;12.06;71.84;95835.92;107115;1273;25287;-79
2023/11/07 10:18:47;;;;;;;4.30;1.80;;;;;;;12.00;71.87;95842.75;107438;1273;24244;-79
2023/11/07 10:21:37;;;;;;;5.90;1.80;;;;;;;11.94;71.99;95849.76;107078;1273;22578;-79
2023/11/07 10:24:06;;;;;;;3.50;1.50;;;;;;;11.88;72.53;95836.30;107264;1273;22654;-79
2023/11/07 10:26:50;;;;;;;4.60;2.20;;;;;;;11.79;73.31;95840.67;107091;1273;22646;-79
2023/11/07 10:29:32;;;;;;;5.10;2.30;;;;;;;11.70;73.32;95841.73;107038;1273;22524;-79
2023/11/07 10:32:10;;;;;;;3.50;1.20;;;;;;;11.63;73.49;95847.32;107023;1273;25453;-78
2023/11/07 10:34:39;;;;;;;3.90;1.50;;;;;;;11.56;74.32;95844.11;107125;1273;22928;-79
2023/11/07 10:37:08;;;;;;;3.20;1.20;;;;;;;11.53;74.56;95829.89;107029;1273;26557;-79
2023/11/07 10:39:36;;;;;;;2.70;1.40;;;;;;;11.59;74.81;95825.90;107080;1273;24431;-79
2023/11/07 10:42:18;;;;;;;3.70;1.40;;;;;;;11.72;74.77;95823.71;106954;1273;24266;-78
2023/11/07 10:44:58;;;;;;;4.80;1.70;;;;;;;11.87;74.29;95819.22;107143;1273;25316;-78
2023/11/07 10:47:37;;;;;;;5.30;1.90;;;;;;;11.92;73.81;95822.48;107043;1273;23106;-78
2023/11/07 10:50:07;;;;;;;43.60;29.00;;;;;;;12.00;73.50;95819.14;106955;1273;22572;-80
2023/11/07 10:52:35;;;;;;;9.20;6.20;;;;;;;12.00;72.72;95818.41;107048;1273;22527;-79
2023/11/07 10:55:04;;;;;;;17.40;12.50;;;;;;;12.10;72.67;95813.98;106759;1273;25252;-80
2023/11/07 10:57:33;;;;;;;29.60;21.90;;;;;;;12.22;72.40;95813.38;106842;1273;24446;-80
2023/11/07 11:00:12;;;;;;;28.70;22.50;;;;;;;12.24;71.43;95815.30;106791;1273;22527;-79
2023/11/07 11:02:45;;;;;;;27.80;18.10;;;;;;;12.27;71.83;95815.92;106787;1273;25414;-79
2023/11/07 11:05:16;;;;;;;16.00;10.50;;;;;;;12.35;72.16;95811.85;106922;1273;25536;-79
2023/11/07 11:07:53;;;;;;;11.60;7.40;;;;;;;12.48;71.51;95809.27;106924;1273;24408;-79
2023/11/07 11:10:30;;;;;;;15.20;10.30;;;;;;;12.82;70.90;95804.63;107072;1273;22692;-79
2023/11/07 11:12:59;;;;;;;8.90;5.00;;;;;;;12.93;69.52;95798.52;106842;1273;25306;-79
2023/11/07 11:15:28;;;;;;;5.20;2.90;;;;;;;12.90;70.01;95798.95;106824;1273;22618;-80
2023/11/07 11:18:07;;;;;;;6.30;2.90;;;;;;;13.11;70.52;95794.37;106904;1273;24388;-80
2023/11/07 11:20:50;;;;;;;5.70;2.30;;;;;;;13.36;69.63;95790.58;107221;1273;24222;-80
2023/11/07 11:23:44;;;;;;;7.90;2.30;;;;;;;13.58;69.82;95783.42;106943;1273;22542;-80
2023/11/07 11:26:47;;;;;;;8.70;4.30;;;;;;;13.94;67.81;95786.67;106968;1273;25385;-81
2023/11/07 11:29:24;;;;;;;6.90;3.90;;;;;;;14.33;64.42;95777.21;106878;1273;23450;-79
2023/11/07 11:31:53;;;;;;;5.20;3.00;;;;;;;14.32;63.49;95779.38;107092;1273;22641;-80
2023/11/07 11:34:28;;;;;;;4.70;2.50;;;;;;;14.08;64.18;95775.67;107067;1273;25008;-81
2023/11/07 11:36:58;;;;;;;8.30;4.10;;;;;;;13.89;64.48;95776.56;106884;1273;24364;-81
2023/11/07 11:39:29;;;;;;;6.40;3.90;;;;;;;13.67;64.52;95778.06;106906;1273;25428;-80